createdAt,value
2023-02-08T00:00:53.031Z,100762.47
2023-02-08T00:03:20.895Z,100754.69
2023-02-08T00:05:50.452Z,100746.72
2023-02-08T00:08:18.400Z,100756.97
2023-02-08T00:10:46.498Z,100740.50
2023-02-08T00:13:14.291Z,100743.03
2023-02-08T00:15:43.393Z,100739.53
2023-02-08T00:18:11.610Z,100737.81
2023-02-08T00:20:40.013Z,100725.81
2023-02-08T00:23:09.371Z,100728.97
2023-02-08T00:25:37.242Z,100718.69
2023-02-08T00:28:08.410Z,100717.09
2023-02-08T00:30:37.217Z,100725.53
2023-02-08T00:33:05.767Z,100720.69
2023-02-08T00:35:33.706Z,100722.28
2023-02-08T00:38:01.588Z,100722.31
2023-02-08T00:40:30.623Z,100723.03
2023-02-08T00:42:58.350Z,100714.47
2023-02-08T00:45:26.029Z,100727.16
2023-02-08T00:47:53.763Z,100729.75
2023-02-08T00:50:22.105Z,100729.06
2023-02-08T00:52:49.861Z,100725.09
2023-02-08T00:55:17.761Z,100722.53
2023-02-08T00:57:46.891Z,100733.06
2023-02-08T01:00:15.300Z,100728.81
2023-02-08T01:02:43.171Z,100733.94
2023-02-08T01:05:12.747Z,100745.00
2023-02-08T01:07:40.980Z,100738.84
2023-02-08T01:10:12.871Z,100742.47
2023-02-08T01:12:41.828Z,100740.88
2023-02-08T01:15:11.310Z,100737.44
2023-02-08T01:17:39.680Z,100729.81
2023-02-08T01:20:08.427Z,100743.38
2023-02-08T01:22:37.482Z,100742.66
2023-02-08T01:25:05.434Z,100731.78
2023-02-08T01:27:33.213Z,100730.00
2023-02-08T01:30:00.972Z,100728.88
2023-02-08T01:32:30.875Z,100728.69
2023-02-08T01:34:58.631Z,100721.66
2023-02-08T01:37:26.385Z,100718.72
2023-02-08T01:39:54.194Z,100708.59
2023-02-08T01:42:22.697Z,100720.47
2023-02-08T01:45:27.664Z,100713.78
2023-02-08T01:48:04.330Z,100703.47
2023-02-08T01:50:37.565Z,100713.66
2023-02-08T01:53:05.642Z,100702.78
2023-02-08T01:55:37.737Z,100706.28
2023-02-08T01:58:09.224Z,100706.81
2023-02-08T02:00:37.076Z,100700.16
2023-02-08T02:03:08.916Z,100704.34
2023-02-08T02:05:42.559Z,100695.31
2023-02-08T02:08:12.110Z,100696.75
2023-02-08T02:10:42.579Z,100692.28
2023-02-08T02:13:14.084Z,100680.31
2023-02-08T02:15:46.231Z,100684.06
2023-02-08T02:18:19.921Z,100672.72
2023-02-08T02:21:06.600Z,100675.16
2023-02-08T02:23:54.034Z,100671.34
2023-02-08T02:26:54.177Z,100666.31
2023-02-08T02:29:47.762Z,100668.91
2023-02-08T02:32:36.499Z,100673.47
2023-02-08T02:35:14.201Z,100668.03
2023-02-08T02:37:53.470Z,100660.38
2023-02-08T02:40:28.823Z,100666.28
2023-02-08T02:43:24.599Z,100663.66
2023-02-08T02:46:01.410Z,100665.50
2023-02-08T02:48:39.525Z,100670.47
2023-02-08T02:51:10.973Z,100674.91
2023-02-08T02:53:48.842Z,100674.25
2023-02-08T02:56:20.510Z,100675.66
2023-02-08T02:58:48.263Z,100671.63
2023-02-08T03:01:26.006Z,100675.19
2023-02-08T03:03:55.551Z,100678.16
2023-02-08T03:06:34.997Z,100670.53
2023-02-08T03:09:36.251Z,100672.66
2023-02-08T03:12:16.803Z,100683.75
2023-02-08T03:14:56.917Z,100680.91
2023-02-08T03:17:39.003Z,100674.50
2023-02-08T03:20:11.056Z,100678.38
2023-02-08T03:22:46.518Z,100679.41
2023-02-08T03:25:21.667Z,100680.50
2023-02-08T03:27:56.896Z,100677.22
2023-02-08T03:30:31.809Z,100685.94
2023-02-08T03:33:04.180Z,100678.28
2023-02-08T03:35:37.471Z,100685.28
2023-02-08T03:38:08.565Z,100678.81
2023-02-08T03:40:40.204Z,100678.13
2023-02-08T03:43:15.860Z,100685.97
2023-02-08T03:45:47.741Z,100674.41
2023-02-08T03:48:19.331Z,100674.47
2023-02-08T03:50:53.503Z,100684.97
2023-02-08T03:53:23.970Z,100675.03
2023-02-08T03:55:57.755Z,100682.53
2023-02-08T03:58:30.242Z,100682.75
2023-02-08T04:01:02.399Z,100689.16
2023-02-08T04:03:32.721Z,100681.53
2023-02-08T04:06:01.857Z,100682.75
2023-02-08T04:08:29.589Z,100682.41
2023-02-08T04:10:57.344Z,100689.78
2023-02-08T04:13:25.227Z,100682.25
2023-02-08T04:15:53.057Z,100684.22
2023-02-08T04:18:20.742Z,100679.00
2023-02-08T04:20:48.526Z,100679.91
2023-02-08T04:23:17.594Z,100669.84
2023-02-08T04:25:45.324Z,100671.84
2023-02-08T04:28:13.147Z,100678.41
2023-02-08T04:30:41.149Z,100674.03
2023-02-08T04:33:09.094Z,100671.69
2023-02-08T04:35:36.782Z,100676.97
2023-02-08T04:38:04.505Z,100674.47
2023-02-08T04:40:33.587Z,100666.59
2023-02-08T04:43:02.335Z,100671.22
2023-02-08T04:45:32.107Z,100665.44
2023-02-08T04:48:01.797Z,100667.50
2023-02-08T04:50:29.678Z,100668.81
2023-02-08T04:52:57.401Z,100665.66
2023-02-08T04:55:25.096Z,100659.84
2023-02-08T04:57:54.171Z,100657.84
2023-02-08T05:00:22.046Z,100659.81
2023-02-08T05:02:53.824Z,100663.16
2023-02-08T05:05:21.710Z,100649.59
2023-02-08T05:07:49.429Z,100651.41
2023-02-08T05:10:17.394Z,100650.03
2023-02-08T05:12:46.234Z,100643.59
2023-02-08T05:15:15.596Z,100644.78
2023-02-08T05:17:43.308Z,100642.03
2023-02-08T05:20:12.851Z,100642.25
2023-02-08T05:22:40.722Z,100647.56
2023-02-08T05:25:10.865Z,100648.59
2023-02-08T05:27:38.773Z,100647.34
2023-02-08T05:30:07.363Z,100654.38
2023-02-08T05:32:36.484Z,100651.91
2023-02-08T05:35:04.327Z,100648.63
2023-02-08T05:37:34.274Z,100650.66
2023-02-08T05:40:02.014Z,100652.69
2023-02-08T05:42:29.793Z,100652.91
2023-02-08T05:44:59.976Z,100657.28
2023-02-08T05:47:27.764Z,100653.19
2023-02-08T05:49:56.891Z,100656.00
2023-02-08T05:52:26.722Z,100657.59
2023-02-08T05:54:54.480Z,100657.84
2023-02-08T05:57:22.290Z,100659.94
2023-02-08T05:59:50.237Z,100664.13
2023-02-08T06:02:18.062Z,100668.84
2023-02-08T06:04:46.111Z,100663.25
2023-02-08T06:07:15.252Z,100662.84
2023-02-08T06:09:43.082Z,100664.41
2023-02-08T06:12:10.874Z,100661.81
2023-02-08T06:14:38.581Z,100670.13
2023-02-08T06:17:06.351Z,100668.44
2023-02-08T06:19:34.158Z,100664.56
2023-02-08T06:22:01.950Z,100665.22
2023-02-08T06:24:31.307Z,100671.34
2023-02-08T06:26:59.083Z,100670.78
2023-02-08T06:29:26.810Z,100670.38
2023-02-08T06:31:54.732Z,100671.00
2023-02-08T06:34:22.785Z,100671.72
2023-02-08T06:36:51.022Z,100677.22
2023-02-08T06:39:18.931Z,100666.47
2023-02-08T06:41:48.144Z,100671.66
2023-02-08T06:44:16.004Z,100671.78
2023-02-08T06:46:43.784Z,100670.91
2023-02-08T06:49:12.081Z,100667.50
2023-02-08T06:51:41.377Z,100679.84
2023-02-08T06:54:11.298Z,100665.28
2023-02-08T06:56:39.080Z,100674.03
2023-02-08T06:59:08.305Z,100677.84
2023-02-08T07:01:36.031Z,100679.59
2023-02-08T07:04:03.871Z,100679.41
2023-02-08T07:06:31.696Z,100675.22
2023-02-08T07:09:02.605Z,100679.59
2023-02-08T07:11:32.542Z,100685.28
2023-02-08T07:14:00.430Z,100690.47
2023-02-08T07:16:29.616Z,100695.53
2023-02-08T07:18:57.412Z,100694.34
2023-02-08T07:21:25.360Z,100698.00
2023-02-08T07:23:53.062Z,100688.84
2023-02-08T07:26:20.833Z,100689.22
2023-02-08T07:28:48.607Z,100685.13
2023-02-08T07:31:18.063Z,100693.84
2023-02-08T07:33:47.481Z,100690.63
2023-02-08T07:36:15.245Z,100685.53
2023-02-08T07:38:42.993Z,100695.81
2023-02-08T07:41:13.686Z,100690.00
2023-02-08T07:43:42.849Z,100681.34
2023-02-08T07:46:12.726Z,100687.53
2023-02-08T07:48:40.854Z,100681.56
2023-02-08T07:51:10.634Z,100681.63
2023-02-08T07:53:39.271Z,100672.97
2023-02-08T07:56:07.839Z,100679.88
2023-02-08T07:58:35.690Z,100679.88
2023-02-08T08:01:19.744Z,100675.47
2023-02-08T08:03:49.591Z,100672.91
2023-02-08T08:06:18.990Z,100664.94
2023-02-08T08:08:47.632Z,100663.09
2023-02-08T08:11:15.853Z,100660.28
2023-02-08T08:13:43.616Z,100674.09
2023-02-08T08:16:11.596Z,100669.78
2023-02-08T08:18:39.455Z,100667.75
2023-02-08T08:21:07.741Z,100664.91
2023-02-08T08:23:37.216Z,100666.88
2023-02-08T08:26:08.584Z,100665.22
2023-02-08T08:28:39.271Z,100667.03
2023-02-08T08:31:11.218Z,100677.47
2023-02-08T08:33:39.114Z,100673.63
2023-02-08T08:36:07.536Z,100670.66
2023-02-08T08:38:38.657Z,100673.56
2023-02-08T08:41:09.009Z,100681.44
2023-02-08T08:43:36.756Z,100674.25
2023-02-08T08:46:06.876Z,100665.94
2023-02-08T08:48:34.915Z,100672.84
2023-02-08T08:51:02.793Z,100658.56
2023-02-08T08:53:30.677Z,100662.97
2023-02-08T08:55:59.821Z,100663.22
2023-02-08T08:58:27.671Z,100654.94
2023-02-08T09:00:58.408Z,100658.13
2023-02-08T09:03:26.352Z,100651.03
2023-02-08T09:05:54.245Z,100647.00
2023-02-08T09:08:21.948Z,100650.38
2023-02-08T09:10:49.898Z,100653.75
2023-02-08T09:13:21.165Z,100655.59
2023-02-08T09:15:50.029Z,100658.00
2023-02-08T09:18:18.199Z,100650.34
2023-02-08T09:20:46.251Z,100656.88
2023-02-08T09:23:15.155Z,100652.69
2023-02-08T09:25:43.050Z,100654.44
2023-02-08T09:28:10.983Z,100646.44
2023-02-08T09:30:40.241Z,100650.00
2023-02-08T09:33:08.082Z,100641.09
2023-02-08T09:35:35.874Z,100648.16
2023-02-08T09:38:05.320Z,100642.50
2023-02-08T09:40:50.393Z,100643.41
2023-02-08T09:43:22.145Z,100641.31
2023-02-08T09:46:00.214Z,100642.53
2023-02-08T09:48:33.520Z,100643.84
2023-02-08T09:51:05.227Z,100642.56
2023-02-08T09:53:37.779Z,100646.63
2023-02-08T09:56:07.794Z,100641.69
2023-02-08T09:58:38.808Z,100635.00
2023-02-08T10:01:18.551Z,100641.66
2023-02-08T10:03:47.962Z,100640.00
2023-02-08T10:06:18.297Z,100629.25
2023-02-08T10:08:48.878Z,100626.00
2023-02-08T10:11:32.999Z,100634.00
2023-02-08T10:14:19.588Z,100636.50
2023-02-08T10:17:01.985Z,100621.09
2023-02-08T10:19:42.629Z,100624.28
2023-02-08T10:22:18.539Z,100628.34
2023-02-08T10:25:22.290Z,100616.34
2023-02-08T10:28:07.334Z,100611.19
2023-02-08T10:30:46.154Z,100614.91
2023-02-08T10:33:22.933Z,100607.41
2023-02-08T10:35:53.236Z,100606.16
2023-02-08T10:38:29.733Z,100602.84
2023-02-08T10:41:07.368Z,100597.28
2023-02-08T10:43:41.332Z,100598.06
2023-02-08T10:46:17.186Z,100593.50
2023-02-08T10:48:58.597Z,100584.25
2023-02-08T10:51:27.340Z,100581.44
2023-02-08T10:53:55.205Z,100577.03
2023-02-08T10:56:37.855Z,100575.53
2023-02-08T10:59:15.484Z,100577.41
2023-02-08T11:01:44.610Z,100576.56
2023-02-08T11:04:14.646Z,100572.50
2023-02-08T11:06:44.472Z,100572.28
2023-02-08T11:09:23.826Z,100569.44
2023-02-08T11:11:53.433Z,100555.28
2023-02-08T11:14:30.418Z,100560.97
2023-02-08T11:17:05.749Z,100558.66
2023-02-08T11:19:42.378Z,100543.84
2023-02-08T11:22:16.976Z,100551.09
2023-02-08T11:24:50.363Z,100530.94
2023-02-08T11:27:20.170Z,100534.91
2023-02-08T11:30:24.248Z,100522.94
2023-02-08T11:33:18.536Z,100511.97
2023-02-08T11:35:56.746Z,100514.03
2023-02-08T11:38:28.098Z,100502.47
2023-02-08T11:40:58.850Z,100505.22
2023-02-08T11:43:29.963Z,100498.34
2023-02-08T11:46:00.242Z,100502.06
2023-02-08T11:48:35.774Z,100498.16
2023-02-08T11:51:05.312Z,100499.41
2023-02-08T11:53:36.665Z,100497.09
2023-02-08T11:56:08.026Z,100488.56
2023-02-08T11:58:36.038Z,100485.41
2023-02-08T12:01:06.080Z,100475.91
2023-02-08T12:03:38.570Z,100469.44
2023-02-08T12:06:26.948Z,100472.94
2023-02-08T12:09:04.164Z,100469.56
2023-02-08T12:11:41.612Z,100467.41
2023-02-08T12:14:34.449Z,100467.16
2023-02-08T12:17:29.459Z,100461.97
2023-02-08T12:20:11.129Z,100452.22
2023-02-08T12:22:51.462Z,100452.56
2023-02-08T12:25:27.201Z,100446.22
2023-02-08T12:28:02.895Z,100438.75
2023-02-08T12:30:35.685Z,100445.50
2023-02-08T12:33:26.886Z,100442.09
2023-02-08T12:36:06.662Z,100437.78
2023-02-08T12:39:18.545Z,100431.81
2023-02-08T12:42:05.788Z,100421.16
2023-02-08T12:44:46.254Z,100414.31
2023-02-08T12:47:32.584Z,100416.50
2023-02-08T12:50:09.131Z,100411.06
2023-02-08T12:52:42.369Z,100404.72
2023-02-08T12:55:19.814Z,100402.69
2023-02-08T12:57:54.570Z,100398.91
2023-02-08T13:00:26.149Z,100388.47
2023-02-08T13:03:03.896Z,100376.59
2023-02-08T13:05:40.078Z,100368.16
2023-02-08T13:08:18.158Z,100367.88
2023-02-08T13:10:54.601Z,100372.53
2023-02-08T13:13:26.988Z,100370.06
2023-02-08T13:15:58.555Z,100365.09
2023-02-08T13:18:31.430Z,100367.44
2023-02-08T13:21:02.693Z,100367.69
2023-02-08T13:23:43.541Z,100365.53
2023-02-08T13:26:24.458Z,100360.72
2023-02-08T13:28:54.330Z,100361.06
2023-02-08T13:31:25.849Z,100354.81
2023-02-08T13:34:01.682Z,100350.25
2023-02-08T13:36:32.406Z,100336.91
2023-02-08T13:39:02.333Z,100336.53
2023-02-08T13:41:33.670Z,100331.47
2023-02-08T13:44:05.271Z,100342.75
2023-02-08T13:46:39.489Z,100348.63
2023-02-08T13:49:07.303Z,100344.00
2023-02-08T13:52:03.255Z,100350.50
2023-02-08T13:54:31.277Z,100355.81
2023-02-08T13:57:00.724Z,100348.38
2023-02-08T13:59:38.267Z,100346.94
2023-02-08T14:02:28.622Z,100343.75
2023-02-08T14:05:44.677Z,100335.44
2023-02-08T14:08:24.087Z,100346.50
2023-02-08T14:11:04.646Z,100345.59
2023-02-08T14:13:45.605Z,100351.44
2023-02-08T14:16:32.227Z,100347.41
2023-02-08T14:19:01.621Z,100351.03
2023-02-08T14:21:34.619Z,100350.72
2023-02-08T14:24:05.128Z,100358.38
2023-02-08T14:26:36.429Z,100354.34
2023-02-08T14:29:08.053Z,100358.66
2023-02-08T14:31:44.471Z,100356.88
2023-02-08T14:34:27.720Z,100351.44
2023-02-08T14:37:06.014Z,100354.72
2023-02-08T14:39:37.105Z,100354.00
2023-02-08T14:42:08.764Z,100352.41
2023-02-08T14:44:48.941Z,100366.63
2023-02-08T14:48:07.869Z,100360.63
2023-02-08T14:50:41.959Z,100346.66
2023-02-08T14:53:28.364Z,100340.81
2023-02-08T14:56:02.088Z,100348.81
2023-02-08T14:58:33.249Z,100342.34
2023-02-08T15:01:06.085Z,100344.81
2023-02-08T15:03:36.053Z,100352.28
2023-02-08T15:06:31.939Z,100349.94
2023-02-08T15:08:59.842Z,100352.16
2023-02-08T15:11:30.925Z,100355.41
2023-02-08T15:14:01.822Z,100356.34
2023-02-08T15:16:35.758Z,100354.72
2023-02-08T15:19:05.814Z,100362.44
2023-02-08T15:21:37.293Z,100356.88
2023-02-08T15:24:14.088Z,100361.53
2023-02-08T15:26:46.733Z,100353.69
2023-02-08T15:29:19.851Z,100353.53
2023-02-08T15:31:48.403Z,100360.59
2023-02-08T15:34:18.419Z,100354.09
2023-02-08T15:36:52.812Z,100356.97
2023-02-08T15:39:34.645Z,100349.53
2023-02-08T15:42:03.218Z,100348.72
2023-02-08T15:44:32.753Z,100348.41
2023-02-08T15:47:05.318Z,100347.28
2023-02-08T15:49:36.607Z,100341.06
2023-02-08T15:52:09.906Z,100342.34
2023-02-08T15:54:37.934Z,100342.94
2023-02-08T15:57:09.850Z,100340.31
2023-02-08T15:59:41.133Z,100343.81
2023-02-08T16:02:25.808Z,100349.31
2023-02-08T16:04:54.284Z,100359.97
2023-02-08T16:07:29.339Z,100360.13
2023-02-08T16:09:58.466Z,100349.47
2023-02-08T16:12:28.711Z,100357.00
2023-02-08T16:14:57.609Z,100358.03
2023-02-08T16:17:42.977Z,100356.81
2023-02-08T16:20:30.702Z,100350.88
2023-02-08T16:23:03.333Z,100352.22
2023-02-08T16:25:37.798Z,100351.84
2023-02-08T16:28:07.717Z,100352.47
2023-02-08T16:30:35.661Z,100353.75
2023-02-08T16:33:09.198Z,100347.81
2023-02-08T16:35:40.275Z,100353.75
2023-02-08T16:38:11.526Z,100353.66
2023-02-08T16:40:48.981Z,100361.31
2023-02-08T16:43:18.172Z,100358.84
2023-02-08T16:46:18.936Z,100365.59
2023-02-08T16:48:50.506Z,100361.91
2023-02-08T16:51:22.804Z,100367.53
2023-02-08T16:53:54.966Z,100367.19
2023-02-08T16:56:23.741Z,100372.00
2023-02-08T16:58:51.636Z,100377.16
2023-02-08T17:01:22.765Z,100375.06
2023-02-08T17:03:53.282Z,100373.41
2023-02-08T17:06:30.464Z,100371.03
2023-02-08T17:09:00.967Z,100376.59
2023-02-08T17:11:29.340Z,100376.09
2023-02-08T17:13:58.345Z,100373.88
2023-02-08T17:16:28.624Z,100383.84
2023-02-08T17:18:56.932Z,100392.84
2023-02-08T17:21:24.753Z,100393.72
2023-02-08T17:23:52.793Z,100402.41
2023-02-08T17:26:27.414Z,100399.75
2023-02-08T17:28:58.981Z,100398.91
2023-02-08T17:31:28.296Z,100400.44
2023-02-08T17:33:58.255Z,100404.78
2023-02-08T17:36:25.999Z,100398.63
2023-02-08T17:38:53.719Z,100389.03
2023-02-08T17:41:25.295Z,100389.88
2023-02-08T17:43:55.828Z,100394.94
2023-02-08T17:46:27.683Z,100398.69
2023-02-08T17:48:55.657Z,100403.66
2023-02-08T17:51:25.016Z,100415.47
2023-02-08T17:53:52.909Z,100410.81
2023-02-08T17:56:23.128Z,100396.03
2023-02-08T17:58:53.903Z,100399.34
2023-02-08T18:01:24.486Z,100400.19
2023-02-08T18:03:53.207Z,100412.56
2023-02-08T18:06:23.013Z,100409.81
2023-02-08T18:08:50.839Z,100407.91
2023-02-08T18:11:21.022Z,100400.06
2023-02-08T18:13:50.837Z,100396.56
2023-02-08T18:16:22.478Z,100402.88
2023-02-08T18:18:50.242Z,100398.47
2023-02-08T18:21:20.273Z,100400.19
2023-02-08T18:23:49.403Z,100403.84
2023-02-08T18:26:19.555Z,100402.50
2023-02-08T18:28:47.994Z,100404.16
2023-02-08T18:31:21.526Z,100406.88
2023-02-08T18:33:50.939Z,100405.25
2023-02-08T18:36:19.123Z,100399.47
2023-02-08T18:38:49.288Z,100409.91
2023-02-08T18:41:21.164Z,100409.53
2023-02-08T18:43:49.837Z,100410.34
2023-02-08T18:46:21.236Z,100413.75
2023-02-08T18:48:49.604Z,100411.19
2023-02-08T18:51:19.696Z,100406.66
2023-02-08T18:53:50.442Z,100404.31
2023-02-08T18:56:21.449Z,100395.78
2023-02-08T18:58:49.521Z,100399.06
2023-02-08T19:01:21.065Z,100403.50
2023-02-08T19:03:51.829Z,100394.78
2023-02-08T19:06:22.737Z,100397.47
2023-02-08T19:08:52.378Z,100394.13
2023-02-08T19:11:23.204Z,100400.50
2023-02-08T19:13:51.838Z,100401.09
2023-02-08T19:16:22.402Z,100392.34
2023-02-08T19:18:53.249Z,100392.31
2023-02-08T19:21:21.701Z,100397.41
2023-02-08T19:23:51.817Z,100389.69
2023-02-08T19:26:21.664Z,100391.53
2023-02-08T19:28:49.996Z,100382.75
2023-02-08T19:31:20.139Z,100382.69
2023-02-08T19:33:53.497Z,100380.06
2023-02-08T19:36:23.914Z,100382.81
2023-02-08T19:38:53.959Z,100391.41
2023-02-08T19:41:24.108Z,100389.84
2023-02-08T19:43:52.066Z,100396.63
2023-02-08T19:46:23.183Z,100384.44
2023-02-08T19:48:53.723Z,100384.44
2023-02-08T19:51:21.585Z,100389.84
2023-02-08T19:53:49.816Z,100384.56
2023-02-08T19:56:19.649Z,100378.53
2023-02-08T19:58:48.212Z,100385.47
2023-02-08T20:01:18.343Z,100384.81
2023-02-08T20:03:50.155Z,100380.44
2023-02-08T20:06:21.094Z,100382.16
2023-02-08T20:08:49.670Z,100391.66
2023-02-08T20:11:19.616Z,100386.63
2023-02-08T20:13:48.286Z,100390.13
2023-02-08T20:16:16.825Z,100392.69
2023-02-08T20:18:44.752Z,100383.03
2023-02-08T20:21:12.788Z,100386.44
2023-02-08T20:23:42.155Z,100385.50
2023-02-08T20:26:11.872Z,100371.66
2023-02-08T20:28:41.571Z,100370.84
2023-02-08T20:31:10.561Z,100374.34
2023-02-08T20:33:39.305Z,100374.44
2023-02-08T20:36:09.509Z,100375.38
2023-02-08T20:38:38.327Z,100378.09
2023-02-08T20:41:10.199Z,100373.09
2023-02-08T20:43:38.530Z,100368.03
2023-02-08T20:46:07.230Z,100383.66
2023-02-08T20:48:35.356Z,100373.34
2023-02-08T20:51:07.384Z,100369.91
2023-02-08T20:53:35.840Z,100367.31
2023-02-08T20:56:08.198Z,100369.03
2023-02-08T20:58:36.241Z,100373.34
2023-02-08T21:01:08.482Z,100375.09
2023-02-08T21:03:36.388Z,100377.69
2023-02-08T21:06:13.633Z,100373.34
2023-02-08T21:08:43.954Z,100375.94
2023-02-08T21:11:13.433Z,100378.53
2023-02-08T21:13:41.282Z,100378.47
2023-02-08T21:16:11.699Z,100378.53
2023-02-08T21:18:39.599Z,100374.22
2023-02-08T21:21:08.190Z,100367.28
2023-02-08T21:23:37.005Z,100379.41
2023-02-08T21:26:06.831Z,100373.34
2023-02-08T21:28:36.595Z,100375.06
2023-02-08T21:31:07.287Z,100375.09
2023-02-08T21:33:35.846Z,100367.28
2023-02-08T21:36:03.917Z,100369.88
2023-02-08T21:38:32.034Z,100369.03
2023-02-08T21:40:59.796Z,100369.91
2023-02-08T21:43:27.644Z,100369.03
2023-02-08T21:45:56.758Z,100357.78
2023-02-08T21:48:24.596Z,100353.47
2023-02-08T21:51:09.872Z,100348.28
2023-02-08T21:53:55.182Z,100347.41
2023-02-08T21:56:23.050Z,100353.47
2023-02-08T21:58:50.804Z,100353.41
2023-02-08T22:01:19.927Z,100350.75
2023-02-08T22:03:47.735Z,100357.66
2023-02-08T22:06:15.469Z,100348.97
2023-02-08T22:08:43.263Z,100346.41
2023-02-08T22:11:11.017Z,100350.81
2023-02-08T22:13:38.822Z,100347.38
2023-02-08T22:16:08.730Z,100353.41
2023-02-08T22:18:41.220Z,100348.22
2023-02-08T22:21:09.789Z,100351.63
2023-02-08T22:23:39.855Z,100351.59
2023-02-08T22:26:08.573Z,100341.22
2023-02-08T22:28:36.636Z,100342.94
2023-02-08T22:31:04.838Z,100350.00
2023-02-08T22:33:32.660Z,100343.97
2023-02-08T22:36:01.891Z,100339.63
2023-02-08T22:38:29.664Z,100340.50
2023-02-08T22:40:57.451Z,100341.34
2023-02-08T22:43:25.195Z,100344.75
2023-02-08T22:45:58.157Z,100345.59
2023-02-08T22:48:26.212Z,100343.03
2023-02-08T22:50:54.285Z,100331.84
2023-02-08T22:53:23.431Z,100332.69
2023-02-08T22:55:51.660Z,100333.53
2023-02-08T22:58:19.438Z,100332.59
2023-02-08T23:00:49.033Z,100329.22
2023-02-08T23:03:17.934Z,100333.56
2023-02-08T23:05:48.205Z,100329.25
2023-02-08T23:08:18.042Z,100327.53
2023-02-08T23:10:47.437Z,100324.06
2023-02-08T23:13:15.337Z,100329.22
2023-02-08T23:15:45.726Z,100316.25
2023-02-08T23:18:13.655Z,100322.31
2023-02-08T23:20:42.080Z,100316.25
2023-02-08T23:23:09.859Z,100320.59
2023-02-08T23:25:40.141Z,100318.03
2023-02-08T23:28:11.524Z,100324.06
2023-02-08T23:30:40.030Z,100323.19
2023-02-08T23:33:08.134Z,100320.59
2023-02-08T23:35:35.937Z,100321.47
2023-02-08T23:38:05.798Z,100322.34
2023-02-08T23:40:33.606Z,100324.06
2023-02-08T23:43:03.639Z,100320.56
2023-02-08T23:45:32.860Z,100320.44
2023-02-08T23:48:00.844Z,100322.28
2023-02-08T23:50:28.612Z,100319.66
2023-02-08T23:52:56.519Z,100317.88
2023-02-08T23:55:25.338Z,100324.84
2023-02-08T23:57:53.119Z,100320.53
